Time;durP1;ratioP1;P1;durP2;ratioP2;P2;SDS_P1;SDS_P2;PMS_P1;PMS_P2;Temp;Humidity;BMP_temperature;BMP_pressure;BME280_temperature;BME280_humidity;BME280_pressure;Samples;Min_cycle;Max_cycle;Signal;HPM_P1;HPM_P2
2023/04/26 00:02:35;;;;;;;;;;;16.80;58.10;;;;;;10291052;28;94153;-68
2023/04/26 00:07:38;;;;;;;;;;;16.80;58.10;;;;;;10291187;28;94839;-69
2023/04/26 00:12:40;;;;;;;;;;;16.80;58.00;;;;;;10290000;28;94064;-69
2023/04/26 00:17:41;;;;;;;;;;;16.80;58.00;;;;;;10289981;28;93515;-68
2023/04/26 00:22:43;;;;;;;;;;;16.70;58.00;;;;;;10290060;28;93487;-68
2023/04/26 00:27:45;;;;;;;;;;;16.70;57.90;;;;;;10289125;28;93398;-69
2023/04/26 00:32:47;;;;;;;;;;;16.70;58.00;;;;;;10291406;28;93072;-68
2023/04/26 00:37:48;;;;;;;;;;;16.70;58.00;;;;;;10272361;28;93616;-68
2023/04/26 00:42:56;;;;;;;;;;;16.70;58.00;;;;;;10272247;28;95257;-69
2023/04/26 00:48:00;;;;;;;;;;;16.70;58.00;;;;;;10286760;28;96258;-68
2023/04/26 00:53:03;;;;;;;;;;;16.70;58.00;;;;;;10289551;28;93071;-68
2023/04/26 00:58:05;;;;;;;;;;;16.70;58.00;;;;;;10289628;28;94618;-68
2023/04/26 01:03:06;;;;;;;;;;;16.70;58.00;;;;;;10272085;28;94527;-68
2023/04/26 01:08:09;;;;;;;;;;;16.60;57.80;;;;;;10288825;28;94421;-68
2023/04/26 01:13:10;;;;;;;;;;;16.60;57.90;;;;;;10287751;28;93495;-68
2023/04/26 01:18:13;;;;;;;;;;;16.60;57.80;;;;;;10289813;28;93525;-68
2023/04/26 01:23:15;;;;;;;;;;;16.60;57.90;;;;;;10289320;28;92589;-68
2023/04/26 01:28:17;;;;;;;;;;;16.60;58.90;;;;;;10287716;28;93154;-68
2023/04/26 01:33:19;;;;;;;;;;;16.60;57.80;;;;;;10288323;28;93589;-68
2023/04/26 01:38:21;;;;;;;;;;;16.50;57.80;;;;;;10286410;28;96088;-68
2023/04/26 01:43:23;;;;;;;;;;;16.50;57.80;;;;;;10287669;28;93708;-68
2023/04/26 01:48:25;;;;;;;;;;;16.50;57.90;;;;;;10288552;28;94282;-69
2023/04/26 01:53:26;;;;;;;;;;;16.50;57.90;;;;;;10287677;28;93362;-69
2023/04/26 01:58:28;;;;;;;;;;;16.50;57.80;;;;;;10287934;28;93449;-68
2023/04/26 02:03:30;;;;;;;;;;;16.50;57.80;;;;;;10287333;28;93555;-69
2023/04/26 02:08:32;;;;;;;;;;;16.50;57.80;;;;;;10287452;28;92731;-68
2023/04/26 02:13:34;;;;;;;;;;;16.40;57.80;;;;;;10287517;28;91932;-68
2023/04/26 02:18:36;;;;;;;;;;;16.40;57.70;;;;;;10288004;28;94193;-69
2023/04/26 02:23:37;;;;;;;;;;;16.40;57.60;;;;;;10287904;28;93630;-69
2023/04/26 02:28:40;;;;;;;;;;;16.40;57.70;;;;;;10283703;28;95890;-69
2023/04/26 02:33:42;;;;;;;;;;;16.40;57.60;;;;;;10286707;28;93776;-69
2023/04/26 02:38:44;;;;;;;;;;;16.40;57.60;;;;;;10269888;28;94968;-68
2023/04/26 02:43:45;;;;;;;;;;;16.40;57.50;;;;;;10286270;28;93504;-68
2023/04/26 02:48:47;;;;;;;;;;;16.40;57.60;;;;;;10289108;28;94227;-68
2023/04/26 02:53:49;;;;;;;;;;;16.40;57.60;;;;;;10292753;28;93427;-68
2023/04/26 02:58:50;;;;;;;;;;;16.30;57.50;;;;;;10293279;28;93488;-68
2023/04/26 03:03:53;;;;;;;;;;;16.30;57.50;;;;;;10294316;28;93782;-68
2023/04/26 03:08:55;;;;;;;;;;;16.30;57.50;;;;;;10293427;28;94526;-68
2023/04/26 03:13:56;;;;;;;;;;;16.40;57.50;;;;;;10292487;28;94397;-69
2023/04/26 03:18:58;;;;;;;;;;;16.30;57.30;;;;;;10289920;28;97701;-69
2023/04/26 03:24:00;;;;;;;;;;;16.30;57.30;;;;;;10292331;28;94106;-68
2023/04/26 03:29:02;;;;;;;;;;;16.40;57.30;;;;;;10292228;28;94176;-68
2023/04/26 03:34:04;;;;;;;;;;;16.30;57.10;;;;;;10274289;28;93554;-68
2023/04/26 03:39:06;;;;;;;;;;;16.30;57.10;;;;;;10291853;28;92737;-69
2023/04/26 03:44:07;;;;;;;;;;;16.30;57.10;;;;;;10292070;28;93049;-69
2023/04/26 05:07:44;;;;;;;;;;;16.70;56.30;;;;;;10206712;28;92791;-69
2023/04/26 05:12:46;;;;;;;;;;;16.80;55.90;;;;;;10190748;28;93918;-69
2023/04/26 05:17:48;;;;;;;;;;;16.90;55.80;;;;;;10206100;28;95896;-68
2023/04/26 05:22:49;;;;;;;;;;;16.90;55.70;;;;;;10208091;28;94785;-68
2023/04/26 05:27:51;;;;;;;;;;;16.90;55.60;;;;;;10191003;28;92647;-67
2023/04/26 05:32:55;;;;;;;;;;;16.90;58.00;;;;;;10208374;28;94062;-67
2023/04/26 05:37:57;;;;;;;;;;;16.90;57.40;;;;;;10208167;28;93613;-67
2023/04/26 05:42:59;;;;;;;;;;;16.80;57.70;;;;;;10207872;28;95567;-68
2023/04/26 05:48:01;;;;;;;;;;;16.80;57.90;;;;;;10215002;28;93466;-68
2023/04/26 05:53:03;;;;;;;;;;;16.80;57.30;;;;;;10231742;28;92786;-68
2023/04/26 05:58:05;;;;;;;;;;;16.80;57.40;;;;;;10247405;28;94092;-68
2023/04/26 06:03:07;;;;;;;;;;;16.70;57.30;;;;;;10246789;28;93956;-68
2023/04/26 06:08:09;;;;;;;;;;;16.70;57.30;;;;;;10245172;28;95945;-68
2023/04/26 06:13:10;;;;;;;;;;;16.70;57.30;;;;;;10229962;28;94527;-68
2023/04/26 06:18:12;;;;;;;;;;;16.70;57.40;;;;;;10247767;28;93317;-68
2023/04/26 06:23:14;;;;;;;;;;;16.60;57.10;;;;;;10249331;28;94414;-68
2023/04/26 06:28:15;;;;;;;;;;;16.60;57.20;;;;;;10254649;28;96106;-68
2023/04/26 06:33:17;;;;;;;;;;;16.60;57.20;;;;;;10254450;28;93585;-68
2023/04/26 06:38:19;;;;;;;;;;;16.50;57.30;;;;;;10253187;28;94381;-67
2023/04/26 06:43:20;;;;;;;;;;;16.60;57.40;;;;;;10255179;28;93523;-68
2023/04/26 06:48:22;;;;;;;;;;;16.50;57.50;;;;;;10254273;28;93201;-68
2023/04/26 06:53:24;;;;;;;;;;;16.50;57.50;;;;;;10253509;28;93300;-67
2023/04/26 06:58:25;;;;;;;;;;;16.50;57.60;;;;;;10251106;28;96902;-67
2023/04/26 07:03:28;;;;;;;;;;;16.50;57.50;;;;;;10253240;28;93820;-67
2023/04/26 07:08:30;;;;;;;;;;;16.50;57.60;;;;;;10252118;28;93530;-67
2023/04/26 07:13:32;;;;;;;;;;;16.50;58.50;;;;;;10235403;28;93460;-67
2023/04/26 07:18:34;;;;;;;;;;;16.50;57.50;;;;;;10252703;28;92791;-67
2023/04/26 07:23:37;;;;;;;;;;;16.50;57.50;;;;;;10234083;28;93517;-67
2023/04/26 07:28:38;;;;;;;;;;;16.50;57.50;;;;;;10252513;28;93652;-67
2023/04/26 07:33:40;;;;;;;;;;;16.50;57.50;;;;;;10251671;28;92707;-67
2023/04/26 07:38:42;;;;;;;;;;;16.50;57.60;;;;;;10234855;28;94540;-67
2023/04/26 07:43:44;;;;;;;;;;;16.40;57.40;;;;;;10251297;28;93931;-67
2023/04/26 07:48:46;;;;;;;;;;;16.50;57.50;;;;;;10231396;28;95851;-67
2023/04/26 07:53:48;;;;;;;;;;;16.50;57.50;;;;;;10252929;28;94634;-67
2023/04/26 07:58:50;;;;;;;;;;;16.40;57.30;;;;;;10251867;28;94625;-68
2023/04/26 08:03:52;;;;;;;;;;;16.40;57.30;;;;;;10251192;28;93920;-67
2023/04/26 08:08:54;;;;;;;;;;;16.40;57.30;;;;;;10234088;28;93808;-68
2023/04/26 08:13:56;;;;;;;;;;;16.40;57.30;;;;;;10249944;28;94480;-67
2023/04/26 08:19:01;;;;;;;;;;;16.40;57.20;;;;;;10233688;28;94340;-67
2023/04/26 08:24:03;;;;;;;;;;;16.40;57.20;;;;;;10251707;28;93368;-67
2023/04/26 08:29:05;;;;;;;;;;;16.40;57.20;;;;;;10232464;28;93861;-67
2023/04/26 08:34:10;;;;;;;;;;;16.40;57.10;;;;;;10250834;28;93715;-67
2023/04/26 08:39:11;;;;;;;;;;;16.40;57.10;;;;;;10229448;28;95769;-67
2023/04/26 08:44:13;;;;;;;;;;;16.40;57.10;;;;;;10250679;28;93768;-68
2023/04/26 08:49:15;;;;;;;;;;;16.40;57.10;;;;;;10230912;28;93664;-68
2023/04/26 08:54:18;;;;;;;;;;;16.40;57.20;;;;;;10249499;28;93615;-67
2023/04/26 08:59:20;;;;;;;;;;;16.40;57.20;;;;;;10249632;28;92599;-67
2023/04/26 09:04:22;;;;;;;;;;;16.40;57.10;;;;;;10248971;28;94059;-67
2023/04/26 09:09:25;;;;;;;;;;;16.40;57.00;;;;;;10249890;28;93859;-67
2023/04/26 09:14:29;;;;;;;;;;;16.40;57.10;;;;;;10250410;28;93379;-67
2023/04/26 09:19:35;;;;;;;;;;;16.40;57.20;;;;;;10232047;28;93750;-67
2023/04/26 09:24:47;;;;;;;;;;;16.40;57.10;;;;;;10251450;28;94365;-67
2023/04/26 09:30:02;;;;;;;;;;;16.40;57.10;;;;;;10247780;28;95913;-70
2023/04/26 09:35:03;;;;;;;;;;;16.40;57.10;;;;;;10249351;28;93329;-68
2023/04/26 09:40:10;;;;;;;;;;;16.40;57.10;;;;;;10250272;28;96336;-67
2023/04/26 09:45:12;;;;;;;;;;;16.30;57.10;;;;;;10248726;28;93564;-67
2023/04/26 09:50:24;;;;;;;;;;;16.30;57.00;;;;;;10248749;28;94440;-67
2023/04/26 09:55:27;;;;;;;;;;;16.30;57.00;;;;;;10248057;28;93614;-67
2023/04/26 10:00:37;;;;;;;;;;;16.30;57.00;;;;;;10248154;28;94456;-67
2023/04/26 10:05:38;;;;;;;;;;;16.30;57.20;;;;;;10248727;28;92928;-67
2023/04/26 10:10:41;;;;;;;;;;;16.30;57.00;;;;;;10230526;28;93294;-68
2023/04/26 10:15:42;;;;;;;;;;;16.30;57.00;;;;;;10248771;28;94365;-67
2023/04/26 10:20:47;;;;;;;;;;;16.30;57.00;;;;;;10244402;28;94903;-67
2023/04/26 10:25:48;;;;;;;;;;;16.30;56.90;;;;;;10230223;28;93499;-67
2023/04/26 10:30:57;;;;;;;;;;;16.20;56.90;;;;;;10229663;28;94521;-67
2023/04/26 10:36:00;;;;;;;;;;;16.30;57.00;;;;;;10246699;28;93489;-67
2023/04/26 10:41:22;;;;;;;;;;;16.20;57.00;;;;;;10213183;28;94300;-67
2023/04/26 10:46:34;;;;;;;;;;;16.20;56.90;;;;;;10246813;28;94004;-67
2023/04/26 10:51:36;;;;;;;;;;;16.30;56.80;;;;;;10246079;28;94355;-67
2023/04/26 10:56:37;;;;;;;;;;;16.30;56.90;;;;;;10247088;28;92783;-67
2023/04/26 11:01:39;;;;;;;;;;;16.30;57.00;;;;;;10246619;28;93847;-67
2023/04/26 11:06:59;;;;;;;;;;;16.30;56.90;;;;;;10228765;28;114686;-67
2023/04/26 11:12:04;;;;;;;;;;;16.30;56.80;;;;;;10249307;28;95901;-66
2023/04/26 11:17:07;;;;;;;;;;;16.30;56.80;;;;;;10252925;28;93208;-68
2023/04/26 11:22:09;;;;;;;;;;;16.30;56.70;;;;;;10235252;28;93512;-68
2023/04/26 11:27:11;;;;;;;;;;;16.30;56.80;;;;;;10252345;28;93524;-68
2023/04/26 11:32:13;;;;;;;;;;;16.30;56.60;;;;;;10251627;28;92628;-67
2023/04/26 11:37:15;;;;;;;;;;;16.30;56.60;;;;;;10252790;28;94238;-68
2023/04/26 11:42:17;;;;;;;;;;;16.40;56.70;;;;;;10234425;28;93355;-68
2023/04/26 11:47:18;;;;;;;;;;;16.40;56.50;;;;;;10234545;28;93784;-67
2023/04/26 11:52:20;;;;;;;;;;;16.40;56.20;;;;;;10252541;28;94768;-68
2023/04/26 11:57:22;;;;;;;;;;;16.40;56.20;;;;;;10258018;28;93462;-67
2023/04/26 12:02:23;;;;;;;;;;;16.40;56.30;;;;;;10250443;28;96852;-67
2023/04/26 12:07:26;;;;;;;;;;;16.40;56.30;;;;;;10252839;28;93797;-67
2023/04/26 12:12:27;;;;;;;;;;;16.50;56.20;;;;;;10234392;28;93699;-68
2023/04/26 12:17:29;;;;;;;;;;;16.50;55.90;;;;;;10250984;28;94893;-68
2023/04/26 12:22:31;;;;;;;;;;;16.40;55.80;;;;;;10249935;28;93927;-67
2023/04/26 12:27:33;;;;;;;;;;;16.40;55.80;;;;;;10233437;28;93680;-68
2023/04/26 12:32:35;;;;;;;;;;;16.40;55.80;;;;;;10249913;28;93436;-68
2023/04/26 12:37:36;;;;;;;;;;;16.40;55.90;;;;;;10250727;28;92809;-68
2023/04/26 12:42:38;;;;;;;;;;;16.30;55.90;;;;;;10250054;28;93302;-68
2023/04/26 12:47:40;;;;;;;;;;;16.30;56.10;;;;;;10249456;28;93288;-67
2023/04/26 12:52:42;;;;;;;;;;;16.30;56.10;;;;;;10247525;28;95630;-68
2023/04/26 12:57:44;;;;;;;;;;;16.30;56.20;;;;;;10249403;28;93461;-68
2023/04/26 13:02:46;;;;;;;;;;;16.30;56.20;;;;;;10250183;28;94202;-68
2023/04/26 13:07:48;;;;;;;;;;;16.30;56.20;;;;;;10233119;28;93558;-68
2023/04/26 13:12:50;;;;;;;;;;;16.20;56.10;;;;;;10248970;28;93099;-68
2023/04/26 13:17:52;;;;;;;;;;;16.20;56.20;;;;;;10248774;28;93289;-68
2023/04/26 13:22:54;;;;;;;;;;;16.20;56.20;;;;;;10232231;28;93668;-68
2023/04/26 13:27:56;;;;;;;;;;;16.20;56.20;;;;;;10249138;28;92278;-68
2023/04/26 13:32:58;;;;;;;;;;;16.20;56.30;;;;;;10248489;28;93668;-68
2023/04/26 13:38:01;;;;;;;;;;;16.20;56.40;;;;;;10230827;28;93309;-68
2023/04/26 13:43:02;;;;;;;;;;;16.20;56.30;;;;;;10228066;28;96298;-68
2023/04/26 13:48:04;;;;;;;;;;;16.20;56.30;;;;;;10248254;28;93400;-68
2023/04/26 13:53:07;;;;;;;;;;;16.20;56.20;;;;;;10248257;28;94544;-68
2023/04/26 13:58:08;;;;;;;;;;;16.20;56.20;;;;;;10247760;28;93358;-68
2023/04/26 14:03:10;;;;;;;;;;;16.20;56.10;;;;;;10247484;28;93673;-68
2023/04/26 14:08:12;;;;;;;;;;;16.20;56.10;;;;;;10248319;28;93661;-68
2023/04/26 14:13:14;;;;;;;;;;;16.20;56.20;;;;;;10248233;28;94293;-68
2023/04/26 14:18:16;;;;;;;;;;;16.20;56.10;;;;;;10248417;28;93029;-68
2023/04/26 14:23:18;;;;;;;;;;;16.20;56.10;;;;;;10247402;28;93634;-68
2023/04/26 14:28:20;;;;;;;;;;;16.20;56.10;;;;;;10230327;28;94210;-68
2023/04/26 14:33:22;;;;;;;;;;;16.20;56.20;;;;;;10244827;28;96801;-69
2023/04/26 14:38:25;;;;;;;;;;;16.20;56.30;;;;;;10248485;28;93942;-68
2023/04/26 14:43:27;;;;;;;;;;;16.20;56.30;;;;;;10248674;28;94530;-68
2023/04/26 14:48:29;;;;;;;;;;;16.20;56.30;;;;;;10254118;28;93828;-68
2023/04/26 14:53:31;;;;;;;;;;;16.30;56.30;;;;;;10255014;28;93990;-69
2023/04/26 14:58:33;;;;;;;;;;;16.20;56.30;;;;;;10254326;28;93576;-68
2023/04/26 15:03:35;;;;;;;;;;;16.30;56.40;;;;;;10254120;28;93262;-68
2023/04/26 15:08:37;;;;;;;;;;;16.30;56.40;;;;;;10253731;28;92143;-68
2023/04/26 15:13:39;;;;;;;;;;;16.30;56.40;;;;;;10254081;28;94880;-68
2023/04/26 15:18:40;;;;;;;;;;;16.40;56.40;;;;;;10251865;28;93619;-68
2023/04/26 15:23:42;;;;;;;;;;;16.50;56.40;;;;;;10249736;28;95873;-68
2023/04/26 15:28:44;;;;;;;;;;;16.80;56.10;;;;;;10252488;28;94343;-68
2023/04/26 15:33:45;;;;;;;;;;;17.10;55.60;;;;;;10251885;28;94780;-68
2023/04/26 15:38:48;;;;;;;;;;;17.30;55.30;;;;;;10234199;28;93154;-68
2023/04/26 15:43:55;;;;;;;;;;;17.40;54.90;;;;;;10252375;28;93666;-68
2023/04/26 15:48:57;;;;;;;;;;;17.50;54.70;;;;;;10250483;28;93562;-68
2023/04/26 15:53:59;;;;;;;;;;;17.60;54.50;;;;;;10251539;28;93676;-68
2023/04/26 15:59:01;;;;;;;;;;;17.70;55.40;;;;;;10252617;28;93001;-68
2023/04/26 16:04:03;;;;;;;;;;;17.80;54.60;;;;;;10251807;28;93572;-68
2023/04/26 16:09:13;;;;;;;;;;;17.90;54.60;;;;;;10252096;28;93711;-68
2023/04/26 16:14:26;;;;;;;;;;;17.80;54.70;;;;;;10248910;28;97020;-68
2023/04/26 16:19:28;;;;;;;;;;;17.80;54.70;;;;;;10251062;28;94595;-68
2023/04/26 16:24:30;;;;;;;;;;;17.80;54.60;;;;;;10250892;28;94902;-67
2023/04/26 16:29:32;;;;;;;;;;;17.70;54.70;;;;;;10232837;28;93825;-68
2023/04/26 16:34:34;;;;;;;;;;;17.80;54.60;;;;;;10250729;28;93457;-68
2023/04/26 16:39:35;;;;;;;;;;;17.90;54.40;;;;;;10250579;28;93635;-68
2023/04/26 16:44:37;;;;;;;;;;;18.00;54.10;;;;;;10232470;28;93947;-68
2023/04/26 16:49:39;;;;;;;;;;;18.00;54.30;;;;;;10233380;28;93717;-68
2023/04/26 16:54:41;;;;;;;;;;;18.00;54.40;;;;;;10250693;28;94499;-67
2023/04/26 16:59:42;;;;;;;;;;;17.90;54.50;;;;;;10249455;28;94133;-67
2023/04/26 17:04:45;;;;;;;;;;;17.90;54.70;;;;;;10247048;28;95757;-68
2023/04/26 17:09:50;;;;;;;;;;;18.10;54.80;;;;;;10249424;28;93531;-68
2023/04/26 17:14:52;;;;;;;;;;;18.30;54.60;;;;;;10249642;28;94515;-67
2023/04/26 17:19:54;;;;;;;;;;;18.40;54.30;;;;;;10249986;28;94552;-68
2023/04/26 17:24:55;;;;;;;;;;;18.50;54.30;;;;;;10249106;28;93522;-67
2023/04/26 17:29:57;;;;;;;;;;;18.50;54.20;;;;;;10248493;28;94697;-67
2023/04/26 17:34:59;;;;;;;;;;;18.40;54.20;;;;;;10247720;28;94440;-68
2023/04/26 17:40:01;;;;;;;;;;;18.40;54.30;;;;;;10249948;28;92504;-67
2023/04/26 17:45:04;;;;;;;;;;;18.30;54.30;;;;;;10248609;28;93286;-67
2023/04/26 17:50:06;;;;;;;;;;;18.30;54.40;;;;;;10247729;28;93694;-67
2023/04/26 17:55:08;;;;;;;;;;;18.30;54.40;;;;;;10245722;28;95358;-67
2023/04/26 18:00:11;;;;;;;;;;;18.20;54.40;;;;;;10247934;28;93189;-67
2023/04/26 18:05:13;;;;;;;;;;;18.10;54.50;;;;;;10247802;28;94608;-68
2023/04/26 18:10:15;;;;;;;;;;;17.90;54.60;;;;;;10247543;28;94287;-67
2023/04/26 18:15:17;;;;;;;;;;;17.80;54.70;;;;;;10247934;28;93170;-68
2023/04/26 18:20:19;;;;;;;;;;;17.80;54.80;;;;;;10250847;28;93573;-68
2023/04/26 18:25:21;;;;;;;;;;;17.70;54.90;;;;;;10254095;28;93378;-68
2023/04/26 18:30:23;;;;;;;;;;;17.60;55.00;;;;;;10255279;28;94216;-68
2023/04/26 18:35:24;;;;;;;;;;;17.50;55.00;;;;;;10253938;28;94437;-67
2023/04/26 18:40:26;;;;;;;;;;;17.50;55.10;;;;;;10254268;28;94047;-67
2023/04/26 18:45:28;;;;;;;;;;;17.40;55.10;;;;;;10251019;28;96056;-67
2023/04/26 18:50:30;;;;;;;;;;;17.40;55.10;;;;;;10235924;28;94260;-67
2023/04/26 18:55:32;;;;;;;;;;;17.30;55.20;;;;;;10236315;28;94738;-67
2023/04/26 19:00:34;;;;;;;;;;;17.30;55.30;;;;;;10254186;28;93502;-67
2023/04/26 19:05:39;;;;;;;;;;;17.20;55.20;;;;;;10252835;28;93235;-67
2023/04/26 19:10:41;;;;;;;;;;;17.20;55.20;;;;;;10252478;28;94232;-67
2023/04/26 19:15:42;;;;;;;;;;;17.20;55.20;;;;;;10251958;28;93785;-68
2023/04/26 19:20:44;;;;;;;;;;;17.20;55.10;;;;;;10253436;28;92936;-68
2023/04/26 19:25:46;;;;;;;;;;;17.10;54.90;;;;;;10252902;28;94097;-68
2023/04/26 19:30:48;;;;;;;;;;;17.10;55.00;;;;;;10252167;28;93244;-68
2023/04/26 19:35:50;;;;;;;;;;;17.00;54.90;;;;;;10250345;28;95714;-68
2023/04/26 19:40:52;;;;;;;;;;;17.00;55.10;;;;;;10252799;28;93807;-68
2023/04/26 19:45:53;;;;;;;;;;;16.90;55.00;;;;;;10252550;28;94180;-68
2023/04/26 19:50:55;;;;;;;;;;;16.90;55.00;;;;;;10235580;28;93303;-68
2023/04/26 19:55:57;;;;;;;;;;;16.90;55.00;;;;;;10253377;28;93779;-67
2023/04/26 20:00:59;;;;;;;;;;;16.90;55.00;;;;;;10252315;28;94316;-67
2023/04/26 20:06:01;;;;;;;;;;;16.80;55.00;;;;;;10252764;28;93349;-67
2023/04/26 20:11:03;;;;;;;;;;;16.80;55.10;;;;;;10252221;28;92764;-68
2023/04/26 20:16:05;;;;;;;;;;;16.80;55.10;;;;;;10249667;28;92819;-66
2023/04/26 20:21:07;;;;;;;;;;;16.70;55.00;;;;;;10251011;28;93705;-67
2023/04/26 20:26:09;;;;;;;;;;;16.70;55.00;;;;;;10248288;28;97035;-68
2023/04/26 20:31:11;;;;;;;;;;;16.70;55.00;;;;;;10251509;28;93954;-67
2023/04/26 20:36:13;;;;;;;;;;;16.70;55.00;;;;;;10233478;28;93866;-67
2023/04/26 20:41:15;;;;;;;;;;;16.70;55.00;;;;;;10249659;28;93388;-67
2023/04/26 20:46:17;;;;;;;;;;;16.70;55.00;;;;;;10250514;28;93435;-67
2023/04/26 20:51:19;;;;;;;;;;;16.60;54.90;;;;;;10250091;28;94635;-67
2023/04/26 20:56:20;;;;;;;;;;;16.60;54.90;;;;;;10250350;28;94514;-66
2023/04/26 21:01:22;;;;;;;;;;;16.60;55.00;;;;;;10232256;28;93127;-67
2023/04/26 21:06:24;;;;;;;;;;;16.60;55.00;;;;;;10249851;28;93608;-67
2023/04/26 21:11:26;;;;;;;;;;;16.60;55.00;;;;;;10248858;28;94359;-67
2023/04/26 21:16:27;;;;;;;;;;;16.50;54.90;;;;;;10246345;28;96882;-67
2023/04/26 21:21:30;;;;;;;;;;;16.50;54.90;;;;;;10249701;28;94692;-67
2023/04/26 21:26:32;;;;;;;;;;;16.50;54.80;;;;;;10249361;28;93472;-67
2023/04/26 21:31:33;;;;;;;;;;;16.50;54.80;;;;;;10249338;28;93421;-67
2023/04/26 21:36:36;;;;;;;;;;;16.50;54.80;;;;;;10248179;28;94546;-67
2023/04/26 21:41:37;;;;;;;;;;;16.50;54.80;;;;;;10248424;28;94486;-67
2023/04/26 21:46:39;;;;;;;;;;;16.50;54.90;;;;;;10248831;28;93244;-67
2023/04/26 21:51:41;;;;;;;;;;;16.50;54.90;;;;;;10249105;28;94002;-67
2023/04/26 21:56:42;;;;;;;;;;;16.40;54.90;;;;;;10246773;28;94478;-67
2023/04/26 22:01:44;;;;;;;;;;;16.40;54.60;;;;;;10246981;28;94458;-68
2023/04/26 22:06:46;;;;;;;;;;;16.40;54.70;;;;;;10227501;28;97092;-68
2023/04/26 22:11:48;;;;;;;;;;;16.40;54.60;;;;;;10246861;28;94448;-68
2023/04/26 22:16:49;;;;;;;;;;;16.40;54.80;;;;;;10229660;28;92877;-68
2023/04/26 22:21:51;;;;;;;;;;;16.30;54.60;;;;;;10247681;28;93551;-66
2023/04/26 22:26:56;;;;;;;;;;;16.30;54.60;;;;;;10247636;28;94579;-68
2023/04/26 22:31:58;;;;;;;;;;;16.30;54.70;;;;;;10247871;28;94066;-68
2023/04/26 22:37:00;;;;;;;;;;;16.30;54.70;;;;;;10229160;28;93632;-68
2023/04/26 22:42:20;;;;;;;;;;;16.30;54.70;;;;;;10233464;28;92245;-67
2023/04/26 22:47:22;;;;;;;;;;;16.30;54.60;;;;;;10227822;28;93513;-68
2023/04/26 22:52:23;;;;;;;;;;;16.30;54.60;;;;;;10227745;28;93605;-67
2023/04/26 22:57:32;;;;;;;;;;;16.30;54.50;;;;;;10243377;28;96989;-68
2023/04/26 23:02:34;;;;;;;;;;;16.30;54.50;;;;;;10229062;28;94441;-67
2023/04/26 23:07:36;;;;;;;;;;;16.30;54.40;;;;;;10251849;28;94654;-68
2023/04/26 23:12:39;;;;;;;;;;;16.30;54.40;;;;;;10253131;28;93484;-67
2023/04/26 23:17:41;;;;;;;;;;;16.30;54.40;;;;;;10253351;28;94621;-67
2023/04/26 23:22:43;;;;;;;;;;;16.30;54.40;;;;;;10251982;28;94179;-68
2023/04/26 23:27:45;;;;;;;;;;;16.30;54.30;;;;;;10252135;28;92576;-67
2023/04/26 23:32:47;;;;;;;;;;;16.20;54.30;;;;;;10252503;28;92943;-68
2023/04/26 23:37:51;;;;;;;;;;;16.30;54.30;;;;;;10251689;28;93304;-68
2023/04/26 23:42:53;;;;;;;;;;;16.30;54.40;;;;;;10252060;28;94452;-68
2023/04/26 23:47:54;;;;;;;;;;;16.20;54.30;;;;;;10248453;28;96380;-68
2023/04/26 23:52:56;;;;;;;;;;;16.20;54.30;;;;;;10251498;28;93758;-68
2023/04/26 23:57:58;;;;;;;;;;;16.20;54.30;;;;;;10252136;28;93281;-68
